Lion A — 3EVT4 — position and weather

sailwx.info

Track history (hours):
 
Tides and Currents Weather Stations Pressure Air Temp Water Temp Dewpoint Dewpoint Depression Visibility Wind Speed Wind Dir Waves Ship Positions

Lion A

Last reported at 2017-Oct-13 02:35 UTC. Time now 2017-Oct-20 08:37 UTC.
Position N 43°50' E 038°50'.

; draft 5.3 m.

Type: Cargo ship. MMSI: 373212000.

Date/timePositionNaut miles runAvg speedWind from/ knotsBaromVisibWave heightAir tempDewpointWater temp
2017-Oct-13 02:35N 43°50' E 038°50'114.0
2017-Oct-13 02:30N 43°51' E 038°51'714.0
2017-Oct-13 02:00N 43°57' E 038°56'714.0
2017-Oct-13 01:31N 44°03' E 039°02'3 6.8
2017-Oct-13 01:00N 44°06' E 039°03'0 0.1
2017-Oct-13 00:31N 44°06' E 039°03'0 0.0
2017-Oct-12 23:59N 44°06' E 039°03'0 0.0
2017-Oct-12 23:29N 44°06' E 039°03'0 0.0
2017-Oct-12 22:59N 44°06' E 039°03'0 0.0
2017-Oct-12 22:29N 44°06' E 039°03'0 0.0
2017-Oct-12 21:59N 44°06' E 039°03'0 0.0
2017-Oct-12 21:29N 44°06' E 039°03'0 0.0
2017-Oct-12 20:59N 44°06' E 039°03'0 0.0
2017-Oct-12 20:29N 44°06' E 039°03'0 0.0
2017-Oct-12 19:59N 44°06' E 039°03'0 0.0
2017-Oct-12 19:29N 44°06' E 039°03'0 0.0
2017-Oct-12 18:59N 44°06' E 039°03'0 0.0
2017-Oct-12 18:29N 44°06' E 039°03'0 0.0
2017-Oct-12 17:59N 44°06' E 039°03'0 0.0
2017-Oct-12 17:29N 44°06' E 039°03'0 0.0
2017-Oct-12 16:59N 44°06' E 039°03'0 0.0
2017-Oct-12 16:29N 44°06' E 039°03'0 0.0
2017-Oct-12 15:59N 44°06' E 039°03'0 0.0
2017-Oct-12 15:29N 44°06' E 039°03'0 0.0
2017-Oct-12 14:59N 44°06' E 039°03'0 0.0
2017-Oct-12 14:29N 44°06' E 039°03'0 0.0
2017-Oct-12 13:59N 44°06' E 039°03'0 0.0
2017-Oct-12 13:29N 44°06' E 039°03'0 0.0
2017-Oct-12 12:59N 44°06' E 039°03'0 0.0
2017-Oct-12 12:29N 44°06' E 039°03'0 0.0
2017-Oct-12 11:53N 44°06' E 039°03'0 0.0
2017-Oct-12 11:29N 44°06' E 039°03'0 0.0
2017-Oct-12 10:59N 44°06' E 039°03'0 0.0
2017-Oct-12 10:29N 44°06' E 039°03'0 0.0
2017-Oct-12 09:59N 44°06' E 039°03'0 0.0
2017-Oct-12 09:29N 44°06' E 039°03'0 0.0
2017-Oct-12 08:59N 44°06' E 039°03'0 0.0
2017-Oct-12 08:29N 44°06' E 039°03'0 0.0
2017-Oct-12 07:59N 44°06' E 039°03'0 0.0
2017-Oct-12 07:29N 44°06' E 039°03'0 0.0
2017-Oct-12 06:59N 44°06' E 039°03'0 0.0
2017-Oct-12 06:29N 44°06' E 039°03'0 0.0
2017-Oct-12 05:59N 44°06' E 039°03'0 0.0
2017-Oct-12 05:29N 44°06' E 039°03'0 0.0
2017-Oct-12 04:59N 44°06' E 039°03'0 0.0
2017-Oct-12 04:29N 44°06' E 039°03'0 0.0
2017-Oct-12 03:59N 44°06' E 039°03'0 0.0
2017-Oct-12 03:29N 44°06' E 039°03'0 0.0
2017-Oct-12 02:59N 44°06' E 039°03'0 0.0
2017-Oct-12 02:29N 44°06' E 039°03'0 0.0
2017-Oct-12 01:59N 44°06' E 039°03'0 0.0
2017-Oct-12 01:29N 44°06' E 039°03'0 0.0
2017-Oct-12 00:59N 44°06' E 039°03'0 0.0
2017-Oct-12 00:29N 44°06' E 039°03'0 0.0
2017-Oct-11 23:59N 44°06' E 039°03'0 0.0
2017-Oct-11 23:29N 44°06' E 039°03'0 0.0
2017-Oct-11 22:59N 44°06' E 039°03'0 0.0
2017-Oct-11 22:30N 44°06' E 039°03'1 1.1
2017-Oct-11 22:00N 44°05' E 039°04'4 7.4
2017-Oct-11 21:30N 44°02' E 039°04'2 3.4
2017-Oct-11 21:00N 44°00' E 039°03'4 7.1
2017-Oct-11 20:30N 43°57' E 039°00'5 9.3
2017-Oct-11 20:00N 43°54' E 038°56'5 9.4
2017-Oct-11 19:30N 43°50' E 038°52'5 9.5
2017-Oct-11 19:00N 43°46' E 038°49'  
2017-Oct-03 22:48N 43°47' E 038°46'412.0
2017-Oct-03 22:30N 43°50' E 038°49'612.1
2017-Oct-03 22:00N 43°55' E 038°53'612.3
2017-Oct-03 21:30N 44°00' E 038°58'510.4
2017-Oct-03 21:00N 44°04' E 039°02'0 0.1
2017-Oct-03 20:30N 44°04' E 039°02'0 0.0
2017-Oct-03 20:00N 44°04' E 039°02'0 0.0
2017-Oct-03 19:30N 44°04' E 039°02'0 0.0
2017-Oct-03 19:00N 44°04' E 039°02'0 0.0
2017-Oct-03 18:30N 44°04' E 039°02'0 0.0
2017-Oct-03 18:01N 44°04' E 039°02'0 0.0
2017-Oct-03 17:30N 44°04' E 039°02'0 0.0
2017-Oct-03 17:00N 44°04' E 039°02'0 0.0
2017-Oct-03 16:30N 44°04' E 039°02'0 0.0
2017-Oct-03 16:01N 44°04' E 039°02'0 0.0
2017-Oct-03 15:31N 44°04' E 039°02'0 0.0
2017-Oct-03 15:01N 44°04' E 039°02'0 0.0
2017-Oct-03 14:01N 44°04' E 039°02'0 0.0
2017-Oct-03 13:30N 44°04' E 039°02'0 0.0
2017-Oct-03 13:01N 44°04' E 039°02'0 0.0
2017-Oct-03 12:30N 44°04' E 039°02'0 0.0
2017-Oct-03 12:00N 44°04' E 039°02'0 0.0
2017-Oct-03 11:30N 44°04' E 039°02'1 1.0
2017-Oct-03 11:00N 44°04' E 039°02'2 3.3
2017-Oct-03 10:31N 44°06' E 039°03'0 0.1
2017-Oct-03 10:00N 44°06' E 039°03'0 0.0
2017-Oct-03 09:30N 44°06' E 039°03'0 0.0
2017-Oct-03 09:01N 44°06' E 039°03'0 0.0
2017-Oct-03 08:30N 44°06' E 039°03'0 0.0
2017-Oct-03 08:00N 44°06' E 039°03'0 0.0
2017-Oct-03 07:31N 44°06' E 039°03'0 0.0
2017-Oct-03 07:01N 44°06' E 039°03'0 0.0
2017-Oct-03 06:31N 44°06' E 039°03'0 0.0
2017-Oct-03 05:58N 44°06' E 039°03'0 0.0
2017-Oct-03 05:31N 44°06' E 039°03'0 0.0
2017-Oct-03 05:00N 44°06' E 039°03'0 0.0
2017-Oct-03 04:28N 44°06' E 039°03'0 0.0
2017-Oct-03 03:57N 44°06' E 039°03'0 0.0
2017-Oct-03 03:31N 44°06' E 039°03'0 0.0
2017-Oct-03 02:58N 44°06' E 039°03'  
Track history (hours):
 
Tides and Currents Weather Stations Pressure Air Temp Water Temp Dewpoint Dewpoint Depression Visibility Wind Speed Wind Dir Waves Ship Positions

Lion A

Last reported at 2017-Oct-13 02:35 UTC. Time now 2017-Oct-20 08:37 UTC.
Position N 43°50' E 038°50'.

; draft 5.3 m.

Type: Cargo ship. MMSI: 373212000.

Date/timePositionNaut miles runAvg speedWind from/ knotsBaromVisibWave heightAir tempDewpointWater temp
2017-Oct-13 02:35N 43°50' E 038°50'114.0
2017-Oct-13 02:30N 43°51' E 038°51'714.0
2017-Oct-13 02:00N 43°57' E 038°56'714.0
2017-Oct-13 01:31N 44°03' E 039°02'3 6.8
2017-Oct-13 01:00N 44°06' E 039°03'0 0.1
2017-Oct-13 00:31N 44°06' E 039°03'0 0.0
2017-Oct-12 23:59N 44°06' E 039°03'0 0.0
2017-Oct-12 23:29N 44°06' E 039°03'0 0.0
2017-Oct-12 22:59N 44°06' E 039°03'0 0.0
2017-Oct-12 22:29N 44°06' E 039°03'0 0.0
2017-Oct-12 21:59N 44°06' E 039°03'0 0.0
2017-Oct-12 21:29N 44°06' E 039°03'0 0.0
2017-Oct-12 20:59N 44°06' E 039°03'0 0.0
2017-Oct-12 20:29N 44°06' E 039°03'0 0.0
2017-Oct-12 19:59N 44°06' E 039°03'0 0.0
2017-Oct-12 19:29N 44°06' E 039°03'0 0.0
2017-Oct-12 18:59N 44°06' E 039°03'0 0.0
2017-Oct-12 18:29N 44°06' E 039°03'0 0.0
2017-Oct-12 17:59N 44°06' E 039°03'0 0.0
2017-Oct-12 17:29N 44°06' E 039°03'0 0.0
2017-Oct-12 16:59N 44°06' E 039°03'0 0.0
2017-Oct-12 16:29N 44°06' E 039°03'0 0.0
2017-Oct-12 15:59N 44°06' E 039°03'0 0.0
2017-Oct-12 15:29N 44°06' E 039°03'0 0.0
2017-Oct-12 14:59N 44°06' E 039°03'0 0.0
2017-Oct-12 14:29N 44°06' E 039°03'0 0.0
2017-Oct-12 13:59N 44°06' E 039°03'0 0.0
2017-Oct-12 13:29N 44°06' E 039°03'0 0.0
2017-Oct-12 12:59N 44°06' E 039°03'0 0.0
2017-Oct-12 12:29N 44°06' E 039°03'0 0.0
2017-Oct-12 11:53N 44°06' E 039°03'0 0.0
2017-Oct-12 11:29N 44°06' E 039°03'0 0.0
2017-Oct-12 10:59N 44°06' E 039°03'0 0.0
2017-Oct-12 10:29N 44°06' E 039°03'0 0.0
2017-Oct-12 09:59N 44°06' E 039°03'0 0.0
2017-Oct-12 09:29N 44°06' E 039°03'0 0.0
2017-Oct-12 08:59N 44°06' E 039°03'0 0.0
2017-Oct-12 08:29N 44°06' E 039°03'0 0.0
2017-Oct-12 07:59N 44°06' E 039°03'0 0.0
2017-Oct-12 07:29N 44°06' E 039°03'0 0.0
2017-Oct-12 06:59N 44°06' E 039°03'0 0.0
2017-Oct-12 06:29N 44°06' E 039°03'0 0.0
2017-Oct-12 05:59N 44°06' E 039°03'0 0.0
2017-Oct-12 05:29N 44°06' E 039°03'0 0.0
2017-Oct-12 04:59N 44°06' E 039°03'0 0.0
2017-Oct-12 04:29N 44°06' E 039°03'0 0.0
2017-Oct-12 03:59N 44°06' E 039°03'0 0.0
2017-Oct-12 03:29N 44°06' E 039°03'0 0.0
2017-Oct-12 02:59N 44°06' E 039°03'0 0.0
2017-Oct-12 02:29N 44°06' E 039°03'0 0.0
2017-Oct-12 01:59N 44°06' E 039°03'0 0.0
2017-Oct-12 01:29N 44°06' E 039°03'0 0.0
2017-Oct-12 00:59N 44°06' E 039°03'0 0.0
2017-Oct-12 00:29N 44°06' E 039°03'0 0.0
2017-Oct-11 23:59N 44°06' E 039°03'0 0.0
2017-Oct-11 23:29N 44°06' E 039°03'0 0.0
2017-Oct-11 22:59N 44°06' E 039°03'0 0.0
2017-Oct-11 22:30N 44°06' E 039°03'1 1.1
2017-Oct-11 22:00N 44°05' E 039°04'4 7.4
2017-Oct-11 21:30N 44°02' E 039°04'2 3.4
2017-Oct-11 21:00N 44°00' E 039°03'4 7.1
2017-Oct-11 20:30N 43°57' E 039°00'5 9.3
2017-Oct-11 20:00N 43°54' E 038°56'5 9.4
2017-Oct-11 19:30N 43°50' E 038°52'5 9.5
2017-Oct-11 19:00N 43°46' E 038°49'  
2017-Oct-03 22:48N 43°47' E 038°46'412.0
2017-Oct-03 22:30N 43°50' E 038°49'612.1
2017-Oct-03 22:00N 43°55' E 038°53'612.3
2017-Oct-03 21:30N 44°00' E 038°58'510.4
2017-Oct-03 21:00N 44°04' E 039°02'0 0.1
2017-Oct-03 20:30N 44°04' E 039°02'0 0.0
2017-Oct-03 20:00N 44°04' E 039°02'0 0.0
2017-Oct-03 19:30N 44°04' E 039°02'0 0.0
2017-Oct-03 19:00N 44°04' E 039°02'0 0.0
2017-Oct-03 18:30N 44°04' E 039°02'0 0.0
2017-Oct-03 18:01N 44°04' E 039°02'0 0.0
2017-Oct-03 17:30N 44°04' E 039°02'0 0.0
2017-Oct-03 17:00N 44°04' E 039°02'0 0.0
2017-Oct-03 16:30N 44°04' E 039°02'0 0.0
2017-Oct-03 16:01N 44°04' E 039°02'0 0.0
2017-Oct-03 15:31N 44°04' E 039°02'0 0.0
2017-Oct-03 15:01N 44°04' E 039°02'0 0.0
2017-Oct-03 14:01N 44°04' E 039°02'0 0.0
2017-Oct-03 13:30N 44°04' E 039°02'0 0.0
2017-Oct-03 13:01N 44°04' E 039°02'0 0.0
2017-Oct-03 12:30N 44°04' E 039°02'0 0.0
2017-Oct-03 12:00N 44°04' E 039°02'0 0.0
2017-Oct-03 11:30N 44°04' E 039°02'1 1.0
2017-Oct-03 11:00N 44°04' E 039°02'2 3.3
2017-Oct-03 10:31N 44°06' E 039°03'0 0.1
2017-Oct-03 10:00N 44°06' E 039°03'0 0.0
2017-Oct-03 09:30N 44°06' E 039°03'0 0.0
2017-Oct-03 09:01N 44°06' E 039°03'0 0.0
2017-Oct-03 08:30N 44°06' E 039°03'0 0.0
2017-Oct-03 08:00N 44°06' E 039°03'0 0.0
2017-Oct-03 07:31N 44°06' E 039°03'0 0.0
2017-Oct-03 07:01N 44°06' E 039°03'0 0.0
2017-Oct-03 06:31N 44°06' E 039°03'0 0.0
2017-Oct-03 05:58N 44°06' E 039°03'0 0.0
2017-Oct-03 05:31N 44°06' E 039°03'0 0.0
2017-Oct-03 05:00N 44°06' E 039°03'0 0.0
2017-Oct-03 04:28N 44°06' E 039°03'0 0.0
2017-Oct-03 03:57N 44°06' E 039°03'0 0.0
2017-Oct-03 03:31N 44°06' E 039°03'0 0.0
2017-Oct-03 02:58N 44°06' E 039°03'  

Dump ship's entire track history